Time;durP1;ratioP1;P1;durP2;ratioP2;P2;SDS_P1;SDS_P2;PMS_P1;PMS_P2;Temp;Humidity;BMP_temperature;BMP_pressure;BME280_temperature;BME280_humidity;BME280_pressure;Samples;Min_cycle;Max_cycle;Signal;HPM_P1;HPM_P2
2021/07/29 00:01:31;;;;;;;4.18;2.20;;;17.50;89.90;;;;;;4965710;28;20033;-83
2021/07/29 00:03:57;;;;;;;3.88;1.90;;;17.40;90.20;;;;;;4982170;28;20546;-83
2021/07/29 00:06:22;;;;;;;5.78;2.40;;;17.40;90.20;;;;;;4980511;28;20471;-82
2021/07/29 00:08:48;;;;;;;3.65;2.10;;;17.40;90.30;;;;;;4981364;28;20536;-83
2021/07/29 00:11:18;;;;;;;4.75;2.25;;;17.30;90.30;;;;;;4992930;28;20088;-83
2021/07/29 00:13:44;;;;;;;4.43;2.17;;;17.30;90.30;;;;;;4974474;28;20033;-82
2021/07/29 00:16:10;;;;;;;3.88;2.05;;;17.20;90.10;;;;;;4981911;28;20021;-82
2021/07/29 00:21:20;;;;;;;6.30;2.10;;;17.20;90.10;;;;;;5001906;28;20558;-83
2021/07/29 00:23:49;;;;;;;6.32;2.38;;;17.20;89.90;;;;;;4966403;28;20030;-83
2021/07/29 00:26:16;;;;;;;5.35;2.35;;;17.20;90.00;;;;;;4978491;28;20035;-82
2021/07/29 00:28:42;;;;;;;7.78;2.10;;;17.20;90.10;;;;;;4993939;28;20486;-82
2021/07/29 00:31:08;;;;;;;4.97;1.90;;;17.20;90.10;;;;;;4981928;28;20034;-82
2021/07/29 00:33:33;;;;;;;4.85;2.25;;;17.20;90.10;;;;;;4965527;28;20438;-82
2021/07/29 00:35:59;;;;;;;6.22;2.15;;;17.20;90.10;;;;;;4984319;28;20033;-82
2021/07/29 00:38:25;;;;;;;5.28;2.25;;;17.10;90.10;;;;;;4981706;28;20069;-82
2021/07/29 00:40:50;;;;;;;5.35;2.10;;;17.10;90.10;;;;;;4978222;28;20019;-82
2021/07/29 00:43:16;;;;;;;4.75;2.33;;;17.10;90.10;;;;;;4987616;28;20038;-82
2021/07/29 00:45:45;;;;;;;6.13;2.00;;;17.10;90.20;;;;;;4981688;28;20064;-82
2021/07/29 00:48:13;;;;;;;5.72;2.20;;;17.10;90.40;;;;;;4997835;28;20089;-82
2021/07/29 00:50:39;;;;;;;4.60;2.08;;;17.10;90.30;;;;;;4997589;28;20046;-81
2021/07/29 00:53:06;;;;;;;7.82;2.17;;;17.10;90.40;;;;;;4998036;28;20030;-82
2021/07/29 00:55:32;;;;;;;5.47;2.35;;;17.00;90.40;;;;;;4981417;28;20383;-82
2021/07/29 00:57:58;;;;;;;5.65;2.00;;;17.00;90.50;;;;;;4977823;28;20026;-82
2021/07/29 01:00:24;;;;;;;7.45;2.30;;;17.00;90.50;;;;;;5006490;28;20034;-82
2021/07/29 01:02:49;;;;;;;6.35;2.15;;;17.00;90.40;;;;;;4977607;28;20034;-82
2021/07/29 01:05:15;;;;;;;7.63;2.85;;;16.90;90.30;;;;;;4987376;28;20034;-82
2021/07/29 01:07:41;;;;;;;6.43;2.30;;;16.90;90.40;;;;;;4977353;28;20052;-82
2021/07/29 01:10:10;;;;;;;5.78;2.10;;;17.00;90.50;;;;;;4965848;28;20480;-82
2021/07/29 01:12:36;;;;;;;6.88;2.20;;;16.90;90.40;;;;;;4991349;28;20490;-82
2021/07/29 01:15:03;;;;;;;6.10;2.42;;;16.90;90.30;;;;;;5000919;28;20108;-82
2021/07/29 01:17:30;;;;;;;5.25;1.88;;;16.90;90.40;;;;;;4961648;28;20031;-82
2021/07/29 01:19:57;;;;;;;6.15;2.00;;;16.90;90.30;;;;;;4983510;28;20097;-82
2021/07/29 01:22:22;;;;;;;3.38;1.85;;;16.90;90.40;;;;;;4996784;28;20072;-82
2021/07/29 01:24:48;;;;;;;6.50;2.40;;;16.90;90.50;;;;;;5014401;28;20483;-82
2021/07/29 01:27:18;;;;;;;8.73;1.90;;;16.90;90.50;;;;;;4996916;28;20100;-82
2021/07/29 01:29:46;;;;;;;6.50;2.00;;;16.90;90.60;;;;;;4980515;28;20026;-82
2021/07/29 01:32:12;;;;;;;7.20;2.25;;;16.80;90.50;;;;;;5014449;28;20053;-82
2021/07/29 01:34:38;;;;;;;6.18;2.13;;;16.90;90.60;;;;;;4980520;28;20440;-82
2021/07/29 01:37:04;;;;;;;5.28;2.00;;;16.80;90.50;;;;;;4996574;28;20467;-82
2021/07/29 01:39:29;;;;;;;7.88;2.60;;;16.80;90.60;;;;;;4996533;28;20037;-82
2021/07/29 01:41:55;;;;;;;8.10;2.45;;;16.80;90.70;;;;;;4980256;28;20022;-82
2021/07/29 01:44:21;;;;;;;5.78;1.90;;;16.80;90.60;;;;;;4980446;28;20030;-82
2021/07/29 01:46:46;;;;;;;8.30;2.20;;;16.80;90.70;;;;;;5014076;28;20034;-82
2021/07/29 01:49:19;;;;;;;8.43;2.10;;;16.80;90.70;;;;;;4980382;28;20045;-82
2021/07/29 01:51:45;;;;;;;5.70;2.08;;;16.80;90.70;;;;;;4981414;28;20033;-82
2021/07/29 01:54:10;;;;;;;4.20;1.95;;;16.90;90.80;;;;;;4998522;28;20116;-82
2021/07/29 01:56:36;;;;;;;6.28;2.20;;;16.80;90.70;;;;;;4964854;28;20030;-82
2021/07/29 01:59:06;;;;;;;5.30;1.88;;;16.80;90.80;;;;;;4998444;28;20022;-82
2021/07/29 02:01:32;;;;;;;5.00;2.10;;;16.80;90.70;;;;;;4982604;28;20026;-82
2021/07/29 02:03:57;;;;;;;8.60;2.53;;;16.80;90.90;;;;;;4979418;28;20034;-82
2021/07/29 02:06:23;;;;;;;4.35;1.70;;;16.80;90.90;;;;;;4979862;28;20387;-82
2021/07/29 02:08:49;;;;;;;9.32;2.55;;;16.80;90.80;;;;;;4979756;28;20513;-82
2021/07/29 02:11:14;;;;;;;7.63;2.70;;;16.80;90.70;;;;;;4979969;28;20026;-82
2021/07/29 02:13:40;;;;;;;9.43;2.60;;;16.80;90.80;;;;;;4979792;28;20415;-82
2021/07/29 02:16:13;;;;;;;8.07;2.38;;;16.80;91.00;;;;;;4995895;28;20038;-82
2021/07/29 02:18:39;;;;;;;8.18;2.17;;;16.80;90.70;;;;;;4980319;28;20471;-82
2021/07/29 02:21:09;;;;;;;8.57;2.50;;;16.70;90.80;;;;;;5012428;28;20362;-81
2021/07/29 02:23:35;;;;;;;4.53;1.80;;;16.70;90.80;;;;;;4995825;28;20475;-82
2021/07/29 02:26:01;;;;;;;6.75;2.20;;;16.70;91.00;;;;;;4979568;28;20273;-82
2021/07/29 02:28:26;;;;;;;7.30;2.30;;;16.70;91.00;;;;;;4995738;28;20076;-82
2021/07/29 02:30:53;;;;;;;5.30;2.13;;;16.70;90.90;;;;;;4995855;28;20156;-82
2021/07/29 02:33:19;;;;;;;7.03;2.55;;;16.60;90.90;;;;;;4961746;28;20053;-82
2021/07/29 02:35:48;;;;;;;6.60;1.83;;;16.60;91.00;;;;;;4986006;28;20037;-82
2021/07/29 02:38:15;;;;;;;8.88;2.63;;;16.60;91.00;;;;;;4995461;28;20076;-82
2021/07/29 02:40:41;;;;;;;6.65;2.30;;;16.60;91.00;;;;;;4979382;28;20029;-82
2021/07/29 02:43:07;;;;;;;7.30;2.20;;;16.60;91.00;;;;;;5013000;28;20034;-81
2021/07/29 02:45:32;;;;;;;4.93;1.98;;;16.60;91.10;;;;;;4995426;28;20032;-82
2021/07/29 02:47:58;;;;;;;5.70;2.05;;;16.60;91.20;;;;;;4995360;28;20026;-82
2021/07/29 02:50:24;;;;;;;6.50;2.22;;;16.50;91.20;;;;;;4979040;28;20387;-82
2021/07/29 02:52:49;;;;;;;7.47;1.83;;;16.50;91.20;;;;;;4979167;28;20041;-82
2021/07/29 02:55:15;;;;;;;5.53;1.80;;;16.50;91.30;;;;;;4995390;28;20128;-82
2021/07/29 02:57:41;;;;;;;11.63;2.35;;;16.50;91.20;;;;;;4980514;28;20037;-82
2021/07/29 03:00:07;;;;;;;7.38;2.30;;;16.50;91.20;;;;;;4975886;28;20030;-81
2021/07/29 03:02:33;;;;;;;7.38;2.17;;;16.50;91.30;;;;;;5013195;28;20494;-82
2021/07/29 03:04:58;;;;;;;5.60;2.00;;;16.40;91.30;;;;;;4962876;28;20038;-82
2021/07/29 03:07:26;;;;;;;6.80;2.08;;;16.50;91.40;;;;;;4991095;28;20026;-82
2021/07/29 03:09:53;;;;;;;7.95;2.33;;;16.40;91.40;;;;;;4986223;28;20075;-82
2021/07/29 03:12:18;;;;;;;7.63;2.25;;;16.40;91.40;;;;;;5012498;28;20125;-82
2021/07/29 03:14:46;;;;;;;9.02;2.45;;;16.40;91.50;;;;;;4994992;28;20041;-82
2021/07/29 03:17:12;;;;;;;5.38;1.92;;;16.40;91.70;;;;;;4978689;28;20079;-82
2021/07/29 03:19:38;;;;;;;10.23;2.83;;;16.40;91.50;;;;;;4978654;28;20022;-82
2021/07/29 03:22:05;;;;;;;9.93;3.05;;;16.40;91.50;;;;;;4994807;28;20057;-82
2021/07/29 03:24:31;;;;;;;9.13;2.42;;;16.40;91.60;;;;;;4995051;28;20036;-82
2021/07/29 03:26:56;;;;;;;6.82;2.58;;;16.40;91.60;;;;;;5012828;28;20466;-82
2021/07/29 03:29:27;;;;;;;7.65;2.30;;;16.40;91.70;;;;;;4976629;28;20038;-82
2021/07/29 03:31:53;;;;;;;8.63;2.53;;;16.40;91.70;;;;;;4987843;28;20033;-82
2021/07/29 03:34:19;;;;;;;6.85;2.10;;;16.30;91.80;;;;;;5012115;28;20435;-82
2021/07/29 03:36:45;;;;;;;11.40;2.17;;;16.40;91.90;;;;;;4995210;28;20148;-82
2021/07/29 03:39:11;;;;;;;6.53;2.28;;;16.40;91.90;;;;;;4978401;28;20061;-82
2021/07/29 03:41:36;;;;;;;8.93;2.60;;;16.40;91.90;;;;;;4978785;28;20030;-82
2021/07/29 03:44:02;;;;;;;7.32;2.03;;;16.40;92.00;;;;;;4994730;28;20498;-82
2021/07/29 03:46:34;;;;;;;8.57;2.50;;;16.30;92.00;;;;;;4981004;28;20039;-82
2021/07/29 03:49:00;;;;;;;9.27;2.75;;;16.40;92.00;;;;;;4978687;28;20049;-82
2021/07/29 03:51:26;;;;;;;9.85;2.67;;;16.40;92.00;;;;;;4994827;28;20049;-82
2021/07/29 03:53:52;;;;;;;7.88;2.50;;;16.40;92.00;;;;;;5012200;28;20033;-82
2021/07/29 03:56:18;;;;;;;10.30;2.47;;;16.40;92.10;;;;;;5012233;28;20022;-83
2021/07/29 03:58:44;;;;;;;7.28;2.25;;;16.40;92.10;;;;;;4994346;28;20018;-82
2021/07/29 04:01:10;;;;;;;7.55;2.28;;;16.40;92.10;;;;;;4994576;28;20464;-83
2021/07/29 04:03:37;;;;;;;8.73;2.40;;;16.40;92.10;;;;;;4994493;28;20026;-82
2021/07/29 04:06:03;;;;;;;12.00;2.78;;;16.40;92.10;;;;;;5012213;28;20407;-82
2021/07/29 04:08:28;;;;;;;14.23;2.95;;;16.40;92.10;;;;;;4994489;28;20022;-82
2021/07/29 04:10:57;;;;;;;10.65;2.35;;;16.40;92.00;;;;;;4994513;28;20041;-82
2021/07/29 04:13:23;;;;;;;8.80;2.38;;;16.40;92.10;;;;;;4995132;28;20030;-83
2021/07/29 04:15:57;;;;;;;9.32;2.45;;;16.40;92.10;;;;;;4962336;28;20018;-81
2021/07/29 04:18:22;;;;;;;9.93;2.47;;;16.40;92.10;;;;;;5012257;28;20061;-84
2021/07/29 04:20:48;;;;;;;8.43;2.47;;;16.50;92.20;;;;;;5001755;23;20070;-84
2021/07/29 04:23:14;;;;;;;11.07;2.75;;;16.40;92.20;;;;;;4994475;28;20445;-85
2021/07/29 04:25:39;;;;;;;7.95;2.20;;;16.40;92.10;;;;;;4995543;28;20026;-84
2021/07/29 04:28:12;;;;;;;8.00;2.20;;;16.40;92.20;;;;;;4976316;28;20041;-84
2021/07/29 04:30:38;;;;;;;9.02;2.42;;;16.40;92.20;;;;;;4978440;28;20125;-84
2021/07/29 04:33:08;;;;;;;8.95;2.25;;;16.40;92.10;;;;;;4995205;28;20120;-84
2021/07/29 04:35:34;;;;;;;9.63;2.38;;;16.40;92.20;;;;;;4994931;28;20116;-85
2021/07/29 04:37:59;;;;;;;11.52;3.42;;;16.40;92.20;;;;;;4978355;28;20172;-85
2021/07/29 04:40:25;;;;;;;8.52;2.60;;;16.40;92.30;;;;;;4980514;28;20033;-84
2021/07/29 04:42:51;;;;;;;9.18;2.88;;;16.40;92.30;;;;;;4987658;28;20046;-85
2021/07/29 04:45:16;;;;;;;10.48;2.50;;;16.40;92.30;;;;;;4996430;28;20387;-85
2021/07/29 04:47:42;;;;;;;13.68;3.20;;;16.40;92.40;;;;;;4978525;28;20420;-85
2021/07/29 04:50:08;;;;;;;8.57;2.90;;;16.40;92.50;;;;;;4974155;28;20026;-84
2021/07/29 04:52:34;;;;;;;10.63;2.28;;;16.30;92.50;;;;;;5002159;28;20033;-84
2021/07/29 04:55:00;;;;;;;9.95;2.65;;;16.30;92.60;;;;;;4965768;28;20029;-85
2021/07/29 04:57:25;;;;;;;8.45;2.67;;;16.30;92.60;;;;;;4963946;28;20030;-84
2021/07/29 04:59:51;;;;;;;7.68;2.70;;;16.30;92.70;;;;;;4969183;28;20463;-84
2021/07/29 05:02:17;;;;;;;7.55;2.50;;;16.30;92.70;;;;;;4978247;28;20070;-84
2021/07/29 05:04:43;;;;;;;10.93;2.95;;;16.30;92.70;;;;;;4996406;28;20071;-84
2021/07/29 05:07:12;;;;;;;7.65;2.55;;;16.30;92.80;;;;;;5015076;28;20096;-84
2021/07/29 05:09:48;;;;;;;5.80;2.20;;;16.30;92.90;;;;;;4981014;28;20022;-85
2021/07/29 05:12:13;;;;;;;7.75;2.30;;;16.40;92.90;;;;;;4997538;28;20188;-85
2021/07/29 05:14:39;;;;;;;7.53;2.35;;;16.40;92.90;;;;;;4980796;28;20915;-84
2021/07/29 05:17:04;;;;;;;13.18;3.58;;;16.30;92.90;;;;;;4981017;28;20537;-85
2021/07/29 05:19:30;;;;;;;11.88;3.55;;;16.40;92.90;;;;;;4980294;28;20403;-84
2021/07/29 05:21:56;;;;;;;10.70;3.35;;;16.40;93.30;;;;;;4984182;28;20042;-85
2021/07/29 05:24:21;;;;;;;8.73;2.80;;;16.40;93.20;;;;;;4997102;28;20022;-84
2021/07/29 05:26:47;;;;;;;10.02;2.88;;;16.40;93.10;;;;;;4977554;28;20027;-85
2021/07/29 05:29:13;;;;;;;11.27;2.83;;;16.50;93.00;;;;;;4961392;28;20037;-85
2021/07/29 05:31:41;;;;;;;8.98;2.60;;;16.50;93.00;;;;;;4977309;28;20045;-84
2021/07/29 05:34:09;;;;;;;11.05;2.67;;;16.50;92.90;;;;;;4977774;28;20031;-85
2021/07/29 05:36:35;;;;;;;12.70;2.97;;;16.50;92.90;;;;;;4977516;28;20499;-84
2021/07/29 05:39:01;;;;;;;8.68;2.72;;;16.50;92.90;;;;;;4990397;28;20539;-84
2021/07/29 05:41:27;;;;;;;14.77;3.70;;;16.50;93.20;;;;;;4945171;28;20125;-84
2021/07/29 05:43:52;;;;;;;14.50;3.25;;;16.50;92.90;;;;;;4990632;28;20026;-84
2021/07/29 05:46:18;;;;;;;8.80;2.60;;;16.50;92.80;;;;;;4977230;28;20368;-85
2021/07/29 05:48:44;;;;;;;11.10;2.92;;;16.60;92.80;;;;;;4957288;28;20030;-85
2021/07/29 05:51:09;;;;;;;7.63;2.88;;;16.60;92.80;;;;;;4977018;28;20037;-85
2021/07/29 05:53:35;;;;;;;13.93;3.28;;;16.60;92.80;;;;;;4974461;28;20030;-85
2021/07/29 05:56:01;;;;;;;8.30;2.67;;;16.60;92.90;;;;;;4979044;28;20137;-85
2021/07/29 05:58:27;;;;;;;11.93;3.08;;;16.60;92.90;;;;;;4980174;28;20029;-85
2021/07/29 06:00:53;;;;;;;8.90;2.70;;;16.60;92.80;;;;;;4959089;28;20035;-85
2021/07/29 06:03:18;;;;;;;8.82;3.15;;;16.60;92.80;;;;;;4998768;28;20084;-85
2021/07/29 06:05:44;;;;;;;12.85;2.95;;;16.60;92.70;;;;;;5020270;28;20042;-85
2021/07/29 06:08:10;;;;;;;11.82;3.20;;;16.60;92.80;;;;;;4976598;28;20079;-85
2021/07/29 06:10:36;;;;;;;7.50;2.72;;;16.70;92.70;;;;;;4989339;28;20025;-85
2021/07/29 06:13:02;;;;;;;9.07;2.90;;;16.70;92.60;;;;;;4995119;28;20041;-86
2021/07/29 06:15:27;;;;;;;14.68;3.55;;;16.70;92.80;;;;;;4991487;28;20022;-85
2021/07/29 06:18:00;;;;;;;14.35;3.53;;;16.70;92.70;;;;;;5022366;28;20022;-85
2021/07/29 06:20:27;;;;;;;11.68;4.00;;;16.60;92.60;;;;;;5004603;28;20065;-86
2021/07/29 06:22:52;;;;;;;8.85;3.33;;;16.60;92.80;;;;;;5004942;28;20020;-86
2021/07/29 06:25:18;;;;;;;12.88;3.28;;;16.60;92.80;;;;;;5013881;28;20398;-85
2021/07/29 06:27:48;;;;;;;14.05;3.00;;;16.70;92.80;;;;;;4980338;28;20451;-86
2021/07/29 06:30:15;;;;;;;12.73;4.47;;;16.70;92.70;;;;;;4980688;28;20049;-85
2021/07/29 06:32:41;;;;;;;18.00;4.13;;;16.70;92.90;;;;;;4995910;28;20096;-85
2021/07/29 06:35:07;;;;;;;12.80;3.45;;;16.70;92.60;;;;;;4975941;28;20035;-85
2021/07/29 06:37:33;;;;;;;13.02;3.00;;;16.80;92.80;;;;;;4988333;28;20022;-86
2021/07/29 06:39:59;;;;;;;16.80;3.55;;;16.80;92.70;;;;;;4995976;28;20052;-85
2021/07/29 06:42:25;;;;;;;9.43;2.85;;;16.80;92.60;;;;;;4967055;28;20073;-85
2021/07/29 06:44:51;;;;;;;14.20;2.85;;;16.90;92.50;;;;;;4965725;28;20081;-85
2021/07/29 06:47:24;;;;;;;11.43;3.80;;;16.90;92.40;;;;;;4978471;28;20079;-86
2021/07/29 06:49:50;;;;;;;12.70;2.70;;;16.90;92.90;;;;;;4980199;28;20034;-85
2021/07/29 06:52:16;;;;;;;11.60;3.10;;;17.00;92.50;;;;;;4977766;28;20093;-86
2021/07/29 06:54:42;;;;;;;14.90;3.72;;;17.00;92.20;;;;;;4999016;28;20419;-86
2021/07/29 06:57:08;;;;;;;12.05;3.35;;;17.10;92.20;;;;;;4979242;28;20030;-86
2021/07/29 06:59:35;;;;;;;12.00;3.20;;;17.10;92.00;;;;;;4975331;28;20483;-85
2021/07/29 07:02:04;;;;;;;12.57;3.03;;;17.20;91.80;;;;;;4995450;28;20072;-86
2021/07/29 07:04:30;;;;;;;12.02;2.75;;;17.20;92.00;;;;;;4981641;28;20022;-86
2021/07/29 07:06:56;;;;;;;10.32;3.35;;;17.20;91.70;;;;;;4991335;28;20036;-86
2021/07/29 07:09:21;;;;;;;13.98;3.55;;;17.30;91.80;;;;;;5006474;28;20025;-85
2021/07/29 07:11:47;;;;;;;9.75;2.92;;;17.40;91.40;;;;;;4969399;28;20069;-85
2021/07/29 07:14:13;;;;;;;13.70;3.05;;;17.40;91.20;;;;;;4991214;28;20085;-85
2021/07/29 07:16:39;;;;;;;10.35;2.75;;;17.50;91.10;;;;;;4988147;28;20037;-85
2021/07/29 07:19:05;;;;;;;16.48;3.05;;;17.60;91.20;;;;;;4971894;28;20031;-86
2021/07/29 07:21:32;;;;;;;14.35;3.05;;;17.60;90.90;;;;;;4968141;28;20053;-85
2021/07/29 07:23:58;;;;;;;11.10;2.50;;;17.70;90.80;;;;;;4968454;28;20060;-83
2021/07/29 07:26:25;;;;;;;7.43;2.85;;;17.80;90.40;;;;;;4987373;28;20033;-84
2021/07/29 07:28:52;;;;;;;8.88;2.47;;;17.80;90.20;;;;;;4973846;28;20039;-83
2021/07/29 07:31:18;;;;;;;16.23;3.40;;;17.90;90.50;;;;;;4998748;28;20029;-85
2021/07/29 07:33:45;;;;;;;8.82;2.60;;;17.90;90.00;;;;;;4966783;28;20125;-85
2021/07/29 07:36:11;;;;;;;11.00;3.80;;;18.00;89.80;;;;;;4989660;28;20135;-85
2021/07/29 07:38:39;;;;;;;12.65;2.80;;;18.00;89.30;;;;;;4982272;28;20429;-85
2021/07/29 07:41:09;;;;;;;12.15;2.70;;;18.00;90.00;;;;;;4971811;28;20019;-86
2021/07/29 07:43:35;;;;;;;9.88;2.92;;;18.10;90.00;;;;;;4974001;28;20502;-85
2021/07/29 07:46:02;;;;;;;12.30;2.75;;;18.10;88.40;;;;;;4969010;28;20376;-84
2021/07/29 07:48:28;;;;;;;8.60;2.78;;;18.20;86.80;;;;;;4996347;28;20068;-84
2021/07/29 07:50:55;;;;;;;12.77;3.03;;;18.20;87.00;;;;;;4975934;28;20028;-83
2021/07/29 07:53:24;;;;;;;10.43;3.08;;;18.20;86.00;;;;;;4978508;28;20065;-84
2021/07/29 07:55:50;;;;;;;10.32;2.45;;;18.20;86.10;;;;;;4975703;28;20019;-84
2021/07/29 07:58:19;;;;;;;11.75;2.80;;;18.20;87.40;;;;;;4975476;28;20041;-84
2021/07/29 08:00:45;;;;;;;14.25;2.83;;;18.30;87.10;;;;;;4989333;28;20495;-84
2021/07/29 08:03:11;;;;;;;9.30;2.65;;;18.40;86.70;;;;;;4984385;28;20026;-83
2021/07/29 08:05:38;;;;;;;13.40;2.83;;;18.40;86.70;;;;;;4979888;28;20030;-84
2021/07/29 08:08:07;;;;;;;8.40;2.40;;;18.40;86.60;;;;;;5011178;28;20420;-84
2021/07/29 08:10:33;;;;;;;8.88;2.70;;;18.40;85.50;;;;;;4975924;28;20034;-83
2021/07/29 08:12:59;;;;;;;8.05;2.60;;;18.50;85.50;;;;;;4994242;28;20026;-83
2021/07/29 08:15:25;;;;;;;9.55;2.90;;;18.50;85.20;;;;;;4991609;28;20093;-84
2021/07/29 08:17:50;;;;;;;9.20;2.42;;;18.60;84.30;;;;;;4967206;28;20022;-83
2021/07/29 08:20:18;;;;;;;11.40;2.55;;;18.60;85.20;;;;;;4992770;28;20117;-83
2021/07/29 08:22:44;;;;;;;10.65;2.47;;;18.60;84.50;;;;;;4988049;28;20109;-83
2021/07/29 08:25:12;;;;;;;9.95;2.63;;;18.70;84.50;;;;;;5005222;28;20069;-83
2021/07/29 08:27:37;;;;;;;10.75;3.13;;;18.80;83.20;;;;;;4965329;28;20031;-83
2021/07/29 08:30:03;;;;;;;11.75;3.08;;;18.80;83.20;;;;;;4990368;28;20088;-83
2021/07/29 08:32:29;;;;;;;6.75;2.13;;;18.90;82.40;;;;;;4986461;28;20022;-84
2021/07/29 08:34:56;;;;;;;10.70;2.78;;;18.90;80.60;;;;;;4992874;28;20543;-84
2021/07/29 08:37:21;;;;;;;8.18;2.58;;;19.00;80.00;;;;;;4989523;28;20109;-84
2021/07/29 08:39:47;;;;;;;9.57;2.22;;;19.10;81.70;;;;;;4983238;28;20115;-84
2021/07/29 08:42:13;;;;;;;8.13;2.45;;;19.10;80.80;;;;;;4982400;28;20026;-84
2021/07/29 08:44:38;;;;;;;14.40;3.28;;;19.20;81.40;;;;;;4988398;28;20034;-84
2021/07/29 08:47:11;;;;;;;8.70;2.42;;;19.30;80.60;;;;;;4982094;28;20022;-84
2021/07/29 08:49:41;;;;;;;7.43;2.45;;;19.40;80.90;;;;;;5016758;28;20030;-84
2021/07/29 08:52:07;;;;;;;6.35;1.92;;;19.40;80.20;;;;;;4980106;28;20041;-84
2021/07/29 08:54:33;;;;;;;9.63;2.63;;;19.40;80.00;;;;;;4978421;28;20385;-83
2021/07/29 08:56:59;;;;;;;9.00;2.40;;;19.50;79.10;;;;;;4976093;28;20037;-84
2021/07/29 08:59:24;;;;;;;9.98;2.67;;;19.50;78.00;;;;;;5015944;28;20034;-84
2021/07/29 09:01:55;;;;;;;10.15;2.45;;;19.40;78.90;;;;;;4969816;28;20034;-84
2021/07/29 09:04:20;;;;;;;11.55;2.53;;;19.40;78.90;;;;;;4976599;28;20023;-84
2021/07/29 09:07:01;;;;;;;10.30;2.80;;;19.40;78.40;;;;;;5014224;28;20030;-84
2021/07/29 09:09:42;;;;;;;8.25;2.28;;;19.50;78.20;;;;;;4997336;28;20026;-84
2021/07/29 09:12:17;;;;;;;7.63;2.38;;;19.50;77.40;;;;;;4985208;28;20026;-84
2021/07/29 09:14:43;;;;;;;14.15;2.80;;;19.60;78.20;;;;;;4983895;28;20492;-84
2021/07/29 09:17:09;;;;;;;11.27;2.72;;;19.70;78.00;;;;;;4985465;28;20045;-84
2021/07/29 09:19:36;;;;;;;7.70;1.95;;;19.80;78.60;;;;;;4997203;28;20053;-85
2021/07/29 09:22:16;;;;;;;12.52;2.33;;;19.80;77.80;;;;;;4994846;28;20064;-86
2021/07/29 09:25:11;;;;;;;6.30;2.20;;;19.90;77.70;;;;;;4984247;28;20022;-84
2021/07/29 09:27:53;;;;;;;10.18;2.75;;;20.00;77.60;;;;;;4993872;28;20030;-84
2021/07/29 09:30:23;;;;;;;5.35;2.05;;;20.00;77.90;;;;;;4993160;28;20044;-84
2021/07/29 09:33:06;;;;;;;10.73;2.63;;;20.10;77.60;;;;;;4997260;28;20044;-84
2021/07/29 09:35:32;;;;;;;10.82;2.38;;;20.10;76.10;;;;;;4984987;28;20061;-84
2021/07/29 09:38:18;;;;;;;7.38;2.35;;;20.10;75.60;;;;;;5010169;28;20463;-84
2021/07/29 09:41:06;;;;;;;7.57;2.50;;;20.20;76.20;;;;;;5001210;28;20029;-84
2021/07/29 09:43:38;;;;;;;10.70;2.55;;;20.30;74.30;;;;;;4982157;28;20479;-85
2021/07/29 09:46:18;;;;;;;6.32;2.00;;;20.30;73.10;;;;;;4977302;28;20483;-85
2021/07/29 09:48:44;;;;;;;8.95;2.08;;;20.30;72.40;;;;;;4984075;28;20022;-84
2021/07/29 09:51:11;;;;;;;7.10;1.95;;;20.30;73.60;;;;;;4999180;28;20021;-84
2021/07/29 09:53:38;;;;;;;9.82;2.03;;;20.40;72.70;;;;;;4966496;28;20041;-84
2021/07/29 09:56:08;;;;;;;8.23;1.95;;;20.40;72.10;;;;;;4983361;28;20479;-84
2021/07/29 09:58:39;;;;;;;11.38;2.72;;;20.50;73.30;;;;;;4980329;28;20386;-85
2021/07/29 10:01:10;;;;;;;8.68;2.58;;;20.50;73.00;;;;;;4998563;28;20041;-85
2021/07/29 10:03:42;;;;;;;9.55;2.75;;;20.60;72.00;;;;;;4968098;28;20034;-84
2021/07/29 10:06:15;;;;;;;6.82;2.47;;;20.60;71.60;;;;;;4999485;28;20032;-84
2021/07/29 10:09:04;;;;;;;9.10;2.40;;;20.50;72.10;;;;;;4984268;28;20108;-84
2021/07/29 10:11:32;;;;;;;9.07;2.60;;;20.50;72.50;;;;;;5009266;28;20022;-84
2021/07/29 10:13:58;;;;;;;6.70;2.20;;;20.50;72.00;;;;;;4996275;28;20089;-84
2021/07/29 10:16:42;;;;;;;9.02;2.38;;;20.50;70.50;;;;;;4960699;28;20050;-84
2021/07/29 10:19:08;;;;;;;7.97;2.53;;;20.50;72.70;;;;;;4984223;28;20068;-85
2021/07/29 10:21:36;;;;;;;8.15;2.28;;;20.60;72.60;;;;;;5001602;23;20131;-87
2021/07/29 10:24:07;;;;;;;8.80;2.22;;;20.70;72.70;;;;;;5012638;28;20033;-87
2021/07/29 10:26:55;;;;;;;9.35;2.33;;;20.80;72.30;;;;;;5014915;28;20025;-87
2021/07/29 10:29:24;;;;;;;8.32;2.17;;;20.80;70.30;;;;;;5011273;28;20026;-86
2021/07/29 10:31:55;;;;;;;9.55;2.47;;;20.80;68.70;;;;;;4995243;28;20029;-88
2021/07/29 10:34:30;;;;;;;6.68;2.05;;;20.70;69.30;;;;;;5009782;28;20038;-88
2021/07/29 10:37:08;;;;;;;8.88;2.47;;;20.70;70.00;;;;;;5007490;28;20387;-88
2021/07/29 10:39:57;;;;;;;6.90;2.05;;;20.60;70.20;;;;;;5006368;28;20045;-88
2021/07/29 10:42:30;;;;;;;6.57;2.25;;;20.60;70.80;;;;;;5007351;28;20014;-88
2021/07/29 10:44:57;;;;;;;10.52;2.50;;;20.60;71.20;;;;;;5010011;28;20032;-86
2021/07/29 10:47:40;;;;;;;11.75;2.65;;;20.60;69.80;;;;;;4998337;28;20030;-88
2021/07/29 10:50:21;;;;;;;6.70;2.55;;;20.60;70.80;;;;;;5007771;28;20076;-88
2021/07/29 10:52:49;;;;;;;;;;;20.40;73.40;;;;;;4995057;28;20037;-86
2021/07/29 10:55:21;;;;;;;10.18;2.47;;;20.30;74.90;;;;;;5007783;28;19952;-87
2021/07/29 10:57:57;;;;;;;8.55;2.20;;;20.20;75.80;;;;;;5001211;28;20475;-86
2021/07/29 11:00:23;;;;;;;10.70;2.42;;;20.20;75.40;;;;;;4995416;28;20033;-85
2021/07/29 11:02:52;;;;;;;7.18;2.80;;;20.10;75.70;;;;;;4995595;28;20506;-86
2021/07/29 11:05:22;;;;;;;7.55;2.70;;;20.00;77.70;;;;;;4992605;28;20502;-87
2021/07/29 11:07:59;;;;;;;;;;;20.10;79.70;;;;;;5010947;28;20040;-88
2021/07/29 11:10:31;;;;;;;8.57;2.70;;;20.10;81.70;;;;;;4994446;28;19910;-87
2021/07/29 11:12:56;;;;;;;9.90;2.88;;;20.20;82.60;;;;;;5011473;28;20066;-87
2021/07/29 11:15:25;;;;;;;7.93;3.05;;;20.30;81.50;;;;;;5010473;28;20066;-86
2021/07/29 11:18:02;;;;;;;7.95;2.38;;;20.40;80.00;;;;;;4992047;28;20089;-87
2021/07/29 11:20:28;;;;;;;9.52;3.03;;;20.50;77.70;;;;;;4990160;28;20081;-86
2021/07/29 11:22:55;;;;;;;12.02;2.90;;;20.50;76.70;;;;;;5006258;28;20092;-86
2021/07/29 11:25:21;;;;;;;8.90;2.67;;;20.50;76.00;;;;;;4988199;28;20027;-88
2021/07/29 11:28:13;;;;;;;9.38;2.63;;;20.50;73.60;;;;;;5007517;28;20026;-87
2021/07/29 11:30:42;;;;;;;12.98;2.75;;;20.40;72.80;;;;;;5009914;28;20014;-86
2021/07/29 11:33:22;;;;;;;9.23;2.67;;;20.30;73.20;;;;;;5000590;28;20065;-85
2021/07/29 11:35:48;;;;;;;10.27;3.08;;;20.30;73.40;;;;;;5013654;28;20072;-86
2021/07/29 11:38:19;;;;;;;7.05;2.50;;;20.20;73.40;;;;;;5007843;28;20061;-85
2021/07/29 11:40:45;;;;;;;7.32;2.50;;;20.20;74.30;;;;;;4992924;28;20026;-85
2021/07/29 11:43:25;;;;;;;10.20;2.85;;;20.10;73.90;;;;;;4991641;28;20038;-85
2021/07/29 11:45:51;;;;;;;7.13;2.40;;;20.10;75.20;;;;;;5001003;28;20021;-84
2021/07/29 11:48:21;;;;;;;7.18;2.28;;;20.10;75.50;;;;;;5015790;28;20109;-84
2021/07/29 11:50:48;;;;;;;9.45;2.17;;;20.10;75.40;;;;;;5006797;28;20057;-84
2021/07/29 11:53:15;;;;;;;8.02;2.30;;;20.00;76.00;;;;;;5021828;28;20086;-84
2021/07/29 11:55:51;;;;;;;5.50;2.17;;;20.00;77.40;;;;;;5019448;28;20432;-84
2021/07/29 11:58:17;;;;;;;6.50;2.17;;;20.00;76.90;;;;;;5006619;28;20049;-86
2021/07/29 12:00:46;;;;;;;7.85;2.15;;;20.00;77.00;;;;;;4998374;28;20061;-86
2021/07/29 12:03:24;;;;;;;8.27;2.50;;;20.00;76.40;;;;;;5015790;28;20061;-86
2021/07/29 12:05:50;;;;;;;6.70;2.20;;;20.10;77.10;;;;;;5015339;28;20138;-85
2021/07/29 12:08:16;;;;;;;10.75;2.60;;;20.20;77.30;;;;;;4983463;28;20029;-86
2021/07/29 12:10:42;;;;;;;7.00;2.45;;;20.30;76.90;;;;;;4999864;28;20030;-86
2021/07/29 12:13:09;;;;;;;10.82;2.80;;;20.40;75.30;;;;;;5022031;28;20065;-84
2021/07/29 12:15:34;;;;;;;8.43;2.33;;;20.60;75.00;;;;;;5020188;28;20060;-85
2021/07/29 12:18:14;;;;;;;9.60;2.35;;;20.70;75.20;;;;;;5021498;28;20026;-88
2021/07/29 12:20:42;;;;;;;10.50;2.65;;;20.80;74.00;;;;;;5024438;28;20038;-88
2021/07/29 12:23:12;;;;;;;7.18;2.08;;;20.90;74.30;;;;;;5030173;28;20010;-88
2021/07/29 12:25:37;;;;;;;9.68;2.58;;;21.00;74.30;;;;;;4995731;28;20030;-88
2021/07/29 12:28:03;;;;;;;8.85;2.53;;;21.10;74.40;;;;;;5016585;28;20048;-88
2021/07/29 12:30:34;;;;;;;7.80;2.20;;;21.30;75.20;;;;;;4998694;28;20498;-88
2021/07/29 12:33:20;;;;;;;9.43;2.45;;;21.40;73.70;;;;;;5004892;28;20032;-88
2021/07/29 12:35:56;;;;;;;7.80;2.22;;;21.50;71.50;;;;;;5004906;28;20102;-89
2021/07/29 12:38:35;;;;;;;7.80;2.17;;;21.60;70.90;;;;;;5006999;28;20037;-89
2021/07/29 12:41:02;;;;;;;8.48;2.70;;;21.60;69.90;;;;;;4999477;28;20387;-88
2021/07/29 12:43:28;;;;;;;9.13;3.30;;;21.60;69.10;;;;;;4984043;28;20027;-88
2021/07/29 12:46:07;;;;;;;8.75;2.42;;;21.50;69.60;;;;;;4996620;28;20039;-89
2021/07/29 12:49:08;;;;;;;13.40;2.85;;;21.40;69.10;;;;;;5007173;28;20026;-89
2021/07/29 12:52:19;;;;;;;11.35;3.08;;;21.30;69.60;;;;;;5004814;28;20046;-88
2021/07/29 12:59:13;;;;;;;7.88;2.42;;;21.10;73.30;;;;;;4964464;28;20497;-88